Time;durP1;ratioP1;P1;durP2;ratioP2;P2;SDS_P1;SDS_P2;PMS_P1;PMS_P2;Temp;Humidity;BMP_temperature;BMP_pressure;BME280_temperature;BME280_humidity;BME280_pressure;Samples;Min_cycle;Max_cycle;Signal;HPM_P1;HPM_P2
2023/10/13 00:01:54;;;;;;;2.25;2.00;;;;;;;;;;4923756;28;59735;-73
2023/10/13 00:04:24;;;;;;;1.70;1.60;;;;;;;;;;4922867;28;58923;-73
2023/10/13 00:06:50;;;;;;;2.15;2.00;;;;;;;;;;4923660;28;58538;-73
2023/10/13 00:09:15;;;;;;;2.17;1.48;;;;;;;;;;4924264;28;60240;-72
2023/10/13 00:11:47;;;;;;;2.13;1.93;;;;;;;;;;4923885;28;58751;-74
2023/10/13 00:14:16;;;;;;;1.40;1.30;;;;;;;;;;4922921;28;59635;-73
2023/10/13 00:16:42;;;;;;;1.50;1.40;;;;;;;;;;4923043;28;58636;-73
2023/10/13 00:19:09;;;;;;;2.05;1.85;;;;;;;;;;4923458;28;58404;-73
2023/10/13 00:21:35;;;;;;;1.58;1.48;;;;;;;;;;4924143;28;60629;-68
2023/10/13 00:24:01;;;;;;;2.05;1.38;;;;;;;;;;4922689;28;58841;-68
2023/10/13 00:26:28;;;;;;;1.60;1.50;;;;;;;;;;4923776;28;58465;-69
2023/10/13 00:29:15;;;;;;;1.60;1.50;;;;;;;;;;4922032;28;59298;-68
2023/10/13 00:31:42;;;;;;;1.55;1.45;;;;;;;;;;4922599;28;58403;-68
2023/10/13 00:36:35;;;;;;;1.70;1.60;;;;;;;;;;4923415;28;58506;-69
2023/10/13 00:39:01;;;;;;;2.33;1.87;;;;;;;;;;4922412;28;58273;-68
2023/10/13 00:41:51;;;;;;;1.90;1.80;;;;;;;;;;4923026;28;59554;-68
2023/10/13 00:44:11;;;;;;;2.20;2.00;;;;;;;;;;4920994;28;58700;-68
2023/10/13 00:46:44;;;;;;;1.52;1.42;;;;;;;;;;4922160;28;58494;-69
2023/10/13 00:49:10;;;;;;;1.83;1.73;;;;;;;;;;4923452;28;59778;-68
2023/10/13 00:51:35;;;;;;;2.45;2.15;;;;;;;;;;4922584;28;58166;-68
2023/10/13 00:54:02;;;;;;;2.20;2.03;;;;;;;;;;4923164;28;60150;-68
2023/10/13 00:56:28;;;;;;;1.90;1.80;;;;;;;;;;4922700;28;59265;-68
2023/10/13 00:58:54;;;;;;;2.05;1.95;;;;;;;;;;4922571;28;58413;-67
2023/10/13 01:01:28;;;;;;;2.85;2.35;;;;;;;;;;4920466;28;58894;-69
2023/10/13 01:03:59;;;;;;;1.48;1.38;;;;;;;;;;4922539;28;58374;-69
2023/10/13 01:06:25;;;;;;;2.05;1.92;;;;;;;;;;4921980;28;58364;-69
2023/10/13 01:08:56;;;;;;;1.70;1.60;;;;;;;;;;4922657;28;58966;-68
2023/10/13 01:11:23;;;;;;;2.05;1.85;;;;;;;;;;4921081;28;58700;-68
2023/10/13 01:13:51;;;;;;;2.00;1.90;;;;;;;;;;4904550;28;59767;-68
2023/10/13 01:16:17;;;;;;;2.03;1.93;;;;;;;;;;4918328;28;59967;-69
2023/10/13 01:18:47;;;;;;;1.60;1.50;;;;;;;;;;4921256;28;58334;-69
2023/10/13 01:21:15;;;;;;;2.03;1.88;;;;;;;;;;4923347;28;63729;-68
2023/10/13 01:23:42;;;;;;;2.17;1.98;;;;;;;;;;4921066;28;58664;-68
2023/10/13 01:26:07;;;;;;;2.17;1.83;;;;;;;;;;4922116;28;58503;-68
2023/10/13 01:28:44;;;;;;;1.77;1.63;;;;;;;;;;4920924;28;58536;-68
2023/10/13 01:31:09;;;;;;;2.00;1.90;;;;;;;;;;4921358;28;58801;-68
2023/10/13 01:33:34;;;;;;;1.93;1.83;;;;;;;;;;4924322;28;58459;-68
2023/10/13 01:36:06;;;;;;;1.50;1.40;;;;;;;;;;4921917;28;58802;-68
2023/10/13 01:38:33;;;;;;;1.63;1.52;;;;;;;;;;4920975;28;59346;-71
2023/10/13 01:40:59;;;;;;;2.20;2.00;;;;;;;;;;4921930;28;60297;-68
2023/10/13 01:43:24;;;;;;;2.03;1.83;;;;;;;;;;4921882;28;59157;-73
2023/10/13 01:45:49;;;;;;;1.57;1.47;;;;;;;;;;4922330;28;58418;-72
2023/10/13 01:48:21;;;;;;;2.10;2.00;;;;;;;;;;4922041;28;58220;-73
2023/10/13 01:50:47;;;;;;;1.73;1.63;;;;;;;;;;4919929;28;59399;-71
2023/10/13 01:53:19;;;;;;;1.92;1.83;;;;;;;;;;4923659;28;58438;-73
2023/10/13 01:55:44;;;;;;;1.73;1.63;;;;;;;;;;4921030;28;58721;-74
2023/10/13 01:58:16;;;;;;;2.27;2.10;;;;;;;;;;4921021;28;58299;-73
2023/10/13 02:00:45;;;;;;;2.05;1.88;;;;;;;;;;4921496;28;60153;-71
2023/10/13 02:03:16;;;;;;;2.13;2.03;;;;;;;;;;4921754;28;59013;-73
2023/10/13 02:05:46;;;;;;;1.77;1.67;;;;;;;;;;4921226;28;58355;-74
2023/10/13 02:08:17;;;;;;;2.55;2.35;;;;;;;;;;4922731;28;60906;-73
2023/10/13 02:10:43;;;;;;;1.92;1.83;;;;;;;;;;4920007;28;59919;-73
2023/10/13 02:13:15;;;;;;;2.50;2.30;;;;;;;;;;4921174;28;58514;-73
2023/10/13 02:15:42;;;;;;;2.20;2.10;;;;;;;;;;4922402;28;58811;-73
2023/10/13 02:18:09;;;;;;;2.03;1.70;;;;;;;;;;4923427;28;58475;-73
2023/10/13 02:20:41;;;;;;;2.13;2.03;;;;;;;;;;4920681;28;59561;-72
2023/10/13 02:23:10;;;;;;;1.70;1.60;;;;;;;;;;4921897;28;59085;-73
2023/10/13 02:25:35;;;;;;;2.10;2.00;;;;;;;;;;4921503;28;58450;-74
2023/10/13 02:28:01;;;;;;;1.97;1.87;;;;;;;;;;4922383;28;59828;-73
2023/10/13 02:30:26;;;;;;;1.50;1.40;;;;;;;;;;4922834;28;58609;-73
2023/10/13 02:32:53;;;;;;;1.73;1.63;;;;;;;;;;4925410;28;58632;-73
2023/10/13 02:35:18;;;;;;;1.80;1.70;;;;;;;;;;4924198;28;59843;-73
2023/10/13 02:37:44;;;;;;;2.00;1.90;;;;;;;;;;4926137;28;58277;-73
2023/10/13 02:40:10;;;;;;;2.22;2.08;;;;;;;;;;4923536;28;59312;-74
2023/10/13 02:42:36;;;;;;;1.75;1.65;;;;;;;;;;4924798;28;58902;-68
2023/10/13 02:45:03;;;;;;;1.52;1.42;;;;;;;;;;4924576;28;58408;-69
2023/10/13 02:47:31;;;;;;;2.30;2.20;;;;;;;;;;4925648;28;59510;-68
2023/10/13 02:50:00;;;;;;;2.10;1.67;;;;;;;;;;4924025;28;58748;-68
2023/10/13 02:52:25;;;;;;;2.00;1.90;;;;;;;;;;4924710;28;58463;-68
2023/10/13 02:54:50;;;;;;;2.00;1.90;;;;;;;;;;4925806;28;58797;-68
2023/10/13 02:57:16;;;;;;;2.10;2.00;;;;;;;;;;4924744;28;58801;-67
2023/10/13 02:59:54;;;;;;;2.47;2.28;;;;;;;;;;4925717;28;58423;-68
2023/10/13 03:02:28;;;;;;;;;;;;;;;;;;4923429;28;58561;-68
2023/10/13 03:04:59;;;;;;;2.20;2.08;;;;;;;;;;4925834;28;58397;-69
2023/10/13 03:07:28;;;;;;;2.00;1.90;;;;;;;;;;4923975;28;59009;-68
2023/10/13 03:09:57;;;;;;;2.08;1.98;;;;;;;;;;4925136;28;59226;-70
2023/10/13 03:12:24;;;;;;;2.20;2.00;;;;;;;;;;4921296;28;58480;-68
2023/10/13 03:14:51;;;;;;;1.70;1.60;;;;;;;;;;4922449;28;59621;-68
2023/10/13 03:17:22;;;;;;;2.23;2.10;;;;;;;;;;4924192;28;59755;-68
2023/10/13 03:19:51;;;;;;;1.88;1.77;;;;;;;;;;4923602;28;58528;-68
2023/10/13 03:22:18;;;;;;;1.98;1.88;;;;;;;;;;4923355;28;59857;-69
2023/10/13 03:24:46;;;;;;;1.80;1.70;;;;;;;;;;4924842;28;58386;-70
2023/10/13 03:27:15;;;;;;;1.67;1.58;;;;;;;;;;4924779;28;59491;-69
2023/10/13 03:29:43;;;;;;;2.05;1.95;;;;;;;;;;4923500;28;59319;-68
2023/10/13 03:32:11;;;;;;;1.87;1.77;;;;;;;;;;4923260;28;58545;-68
2023/10/13 03:37:18;;;;;;;2.22;2.13;;;;;;;;;;4923749;28;58447;-70
2023/10/13 03:39:45;;;;;;;2.15;2.00;;;;;;;;;;4924378;28;57867;-68
2023/10/13 03:42:18;;;;;;;2.45;2.25;;;;;;;;;;4921291;28;60562;-68
2023/10/13 03:44:46;;;;;;;1.80;1.70;;;;;;;;;;4923245;28;58344;-68
2023/10/13 03:47:18;;;;;;;1.60;1.50;;;;;;;;;;4924318;28;58702;-69
2023/10/13 03:49:43;;;;;;;2.28;2.17;;;;;;;;;;4922711;28;59212;-68
2023/10/13 03:52:13;;;;;;;1.70;1.60;;;;;;;;;;4924380;28;58372;-73
2023/10/13 03:54:40;;;;;;;1.83;1.73;;;;;;;;;;4924943;28;60312;-73
2023/10/13 03:57:11;;;;;;;2.67;2.47;;;;;;;;;;4924191;28;59440;-73
2023/10/13 03:59:36;;;;;;;1.88;1.77;;;;;;;;;;4923841;28;58907;-73
2023/10/13 04:02:03;;;;;;;1.73;1.63;;;;;;;;;;4923117;28;58555;-68
2023/10/13 04:04:34;;;;;;;2.27;2.07;;;;;;;;;;4924068;28;58841;-68
2023/10/13 04:12:21;;;;;;;;;;;;;;;;;;4929614;28;58717;-69
2023/10/13 04:17:33;;;;;;;2.85;2.65;;;;;;;;;;4906742;28;58424;-68
2023/10/13 04:26:04;;;;;;;1.70;1.60;;;;;;;;;;4917219;28;58674;-67
2023/10/13 04:33:35;;;;;;;1.67;1.58;;;;;;;;;;4920874;28;58499;-69
2023/10/13 04:36:13;;;;;;;1.88;1.77;;;;;;;;;;4919958;28;59546;-68
2023/10/13 04:38:55;;;;;;;2.00;1.90;;;;;;;;;;4920908;28;58529;-69
2023/10/13 04:41:23;;;;;;;1.70;1.60;;;;;;;;;;4922620;28;58448;-67
2023/10/13 04:44:04;;;;;;;;;;;;;;;;;;4923268;28;59045;-66
2023/10/13 04:46:39;;;;;;;1.88;1.77;;;;;;;;;;4921604;28;58658;-68
2023/10/13 04:49:26;;;;;;;1.88;1.77;;;;;;;;;;4920163;28;58478;-69
2023/10/13 06:29:31;;;;;;;1.65;1.52;;;;;;;;;;4922117;28;58782;-70
2023/10/13 06:31:57;;;;;;;1.70;1.60;;;;;;;;;;4921711;28;58574;-70
2023/10/13 06:34:37;;;;;;;1.52;1.33;;;;;;;;;;4921046;28;58470;-71
2023/10/13 06:37:02;;;;;;;1.60;1.50;;;;;;;;;;4922042;28;58396;-71
2023/10/13 06:39:37;;;;;;;1.40;1.30;;;;;;;;;;4923371;28;59452;-70
2023/10/13 06:42:02;;;;;;;1.38;1.27;;;;;;;;;;4921486;28;60102;-71
2023/10/13 06:44:32;;;;;;;1.58;1.48;;;;;;;;;;4922144;28;58296;-70
2023/10/13 06:46:57;;;;;;;1.50;1.40;;;;;;;;;;4921308;28;59686;-70
2023/10/13 06:49:23;;;;;;;1.17;1.07;;;;;;;;;;4927518;28;60030;-70
2023/10/13 06:51:48;;;;;;;1.58;1.48;;;;;;;;;;4920777;28;58431;-69
2023/10/13 06:54:24;;;;;;;1.87;1.33;;;;;;;;;;4922191;28;58560;-70
2023/10/13 06:56:52;;;;;;;2.28;1.88;;;;;;;;;;4922634;28;58382;-70
2023/10/13 06:59:18;;;;;;;1.00;1.00;;;;;;;;;;4919015;28;59225;-70
2023/10/13 07:01:44;;;;;;;1.40;1.23;;;;;;;;;;4908885;28;58595;-70
2023/10/13 07:04:16;;;;;;;1.25;1.15;;;;;;;;;;4920716;28;58194;-69
2023/10/13 07:06:48;;;;;;;1.33;1.23;;;;;;;;;;4922016;28;59508;-70
2023/10/13 07:12:01;;;;;;;0.88;0.88;;;;;;;;;;4920914;28;58346;-70
2023/10/13 07:14:26;;;;;;;1.00;1.00;;;;;;;;;;4920887;28;59255;-70
2023/10/13 07:16:58;;;;;;;1.40;1.30;;;;;;;;;;4907082;28;58753;-70
2023/10/13 07:19:24;;;;;;;1.05;1.00;;;;;;;;;;4923987;28;59720;-70
2023/10/13 07:21:58;;;;;;;1.33;1.23;;;;;;;;;;4923182;28;58970;-71
2023/10/13 07:24:24;;;;;;;1.00;0.90;;;;;;;;;;4925565;28;58279;-70
2023/10/13 07:26:57;;;;;;;1.33;1.23;;;;;;;;;;4924794;28;59529;-70
2023/10/13 07:29:24;;;;;;;0.95;0.93;;;;;;;;;;4924807;28;58577;-70
2023/10/13 07:31:50;;;;;;;0.82;0.82;;;;;;;;;;4924168;28;58128;-68
2023/10/13 07:34:25;;;;;;;1.40;1.30;;;;;;;;;;4923332;28;58569;-68
2023/10/13 07:36:51;;;;;;;0.90;0.90;;;;;;;;;;4923587;28;58376;-67
2023/10/13 07:39:24;;;;;;;1.30;1.20;;;;;;;;;;4926295;28;58497;-67
2023/10/13 07:41:54;;;;;;;1.08;1.00;;;;;;;;;;4923057;28;58857;-67
2023/10/13 07:44:28;;;;;;;0.90;0.90;;;;;;;;;;4923525;28;58473;-67
2023/10/13 07:47:02;;;;;;;0.90;0.90;;;;;;;;;;4924809;28;59291;-67
2023/10/13 07:49:30;;;;;;;0.88;0.88;;;;;;;;;;4923688;28;59826;-69
2023/10/13 07:51:57;;;;;;;0.85;0.85;;;;;;;;;;4924430;28;58509;-68
2023/10/13 07:54:22;;;;;;;0.98;0.98;;;;;;;;;;4925046;28;58694;-68
2023/10/13 07:56:48;;;;;;;1.00;0.90;;;;;;;;;;4925272;28;58568;-68
2023/10/13 07:59:16;;;;;;;0.80;0.80;;;;;;;;;;4925270;28;60544;-67
2023/10/13 08:01:46;;;;;;;1.40;1.30;;;;;;;;;;4922208;28;58829;-67
2023/10/13 08:04:11;;;;;;;0.90;0.90;;;;;;;;;;4924859;28;58382;-68
2023/10/13 08:06:36;;;;;;;0.80;0.80;;;;;;;;;;4924598;28;58433;-68
2023/10/13 08:09:08;;;;;;;0.98;0.98;;;;;;;;;;4923498;28;59989;-68
2023/10/13 08:11:37;;;;;;;0.88;0.88;;;;;;;;;;4924334;28;58478;-68
2023/10/13 08:14:16;;;;;;;1.00;1.00;;;;;;;;;;4924933;28;59392;-68
2023/10/13 08:19:20;;;;;;;0.80;0.80;;;;;;;;;;4921969;28;58449;-67
2023/10/13 08:21:51;;;;;;;1.13;0.95;;;;;;;;;;4923536;28;59307;-67
2023/10/13 08:24:24;;;;;;;0.70;0.70;;;;;;;;;;4930003;28;58415;-68
2023/10/13 08:32:36;;;;;;;0.70;0.70;;;;;;;;;;4925925;28;58506;-67
2023/10/13 08:37:33;;;;;;;0.93;0.93;;;;;;;;;;4923033;28;58579;-68
2023/10/13 08:48:07;;;;;;;0.80;0.80;;;;;;;;;;4923913;28;58469;-70
2023/10/13 08:56:14;;;;;;;1.25;1.15;;;;;;;;;;4924793;28;58368;-70
2023/10/13 09:06:47;;;;;;;2.72;0.98;;;;;;;;;;4922269;28;58559;-69
2023/10/13 09:09:26;;;;;;;1.25;1.15;;;;;;;;;;4906727;28;64971;-70
2023/10/13 09:12:04;;;;;;;1.75;0.88;;;;;;;;;;4905874;28;59430;-70
2023/10/13 09:14:33;;;;;;;;;;;;;;;;;;4904513;28;58373;-70
2023/10/13 09:17:08;;;;;;;0.73;0.73;;;;;;;;;;4912829;28;59732;-70
2023/10/13 09:19:45;;;;;;;0.82;0.82;;;;;;;;;;4922492;28;59034;-70
2023/10/13 09:22:24;;;;;;;0.73;0.73;;;;;;;;;;4922016;28;58422;-71
2023/10/13 09:24:51;;;;;;;1.30;1.20;;;;;;;;;;4923505;28;59938;-69
2023/10/13 09:27:16;;;;;;;0.82;0.82;;;;;;;;;;4905682;28;59356;-70
2023/10/13 09:29:42;;;;;;;0.63;0.63;;;;;;;;;;4922697;28;60012;-70
2023/10/13 09:32:11;;;;;;;0.65;0.60;;;;;;;;;;4921365;28;59102;-70
2023/10/13 09:34:40;;;;;;;0.73;0.73;;;;;;;;;;4922511;28;58546;-69
2023/10/13 09:37:09;;;;;;;0.70;0.70;;;;;;;;;;4922158;28;58943;-70
2023/10/13 09:39:44;;;;;;;0.80;0.80;;;;;;;;;;4925448;28;58615;-70
2023/10/13 09:42:10;;;;;;;0.80;0.80;;;;;;;;;;4922844;28;58355;-70
2023/10/13 09:44:37;;;;;;;1.10;1.00;;;;;;;;;;4922258;28;59762;-69
2023/10/13 09:47:07;;;;;;;0.90;0.85;;;;;;;;;;4922613;28;59286;-70
2023/10/13 09:49:51;;;;;;;0.63;0.63;;;;;;;;;;4923284;28;58422;-70
2023/10/13 09:52:20;;;;;;;0.70;0.70;;;;;;;;;;4920670;28;58768;-70
2023/10/13 09:54:59;;;;;;;1.10;1.00;;;;;;;;;;4922282;28;58427;-70
2023/10/13 09:57:28;;;;;;;0.50;0.50;;;;;;;;;;4923325;28;64030;-70
2023/10/13 09:59:57;;;;;;;0.65;0.65;;;;;;;;;;4921915;28;59347;-71
2023/10/13 10:02:25;;;;;;;0.68;0.65;;;;;;;;;;4922312;28;57776;-69
2023/10/13 10:04:55;;;;;;;1.08;0.82;;;;;;;;;;4922365;28;58658;-70
2023/10/13 10:07:24;;;;;;;0.57;0.52;;;;;;;;;;4921563;28;59070;-69
2023/10/13 10:09:56;;;;;;;0.80;0.80;;;;;;;;;;4923043;28;58473;-69
2023/10/13 10:12:41;;;;;;;1.48;1.38;;;;;;;;;;4921656;28;61028;-69
2023/10/13 10:15:20;;;;;;;1.05;0.80;;;;;;;;;;4922445;28;58249;-70
2023/10/13 10:17:46;;;;;;;0.90;0.90;;;;;;;;;;4921967;28;59688;-70
2023/10/13 10:20:15;;;;;;;0.50;0.50;;;;;;;;;;4920462;28;59893;-70
2023/10/13 10:22:44;;;;;;;1.42;1.10;;;;;;;;;;4922120;28;58217;-70
2023/10/13 10:25:24;;;;;;;1.30;1.05;;;;;;;;;;4922298;28;58891;-70
2023/10/13 10:27:56;;;;;;;1.45;1.00;;;;;;;;;;4921582;28;60198;-70
2023/10/13 10:30:25;;;;;;;1.50;0.93;;;;;;;;;;4922985;28;58427;-70
2023/10/13 10:32:54;;;;;;;0.70;0.70;;;;;;;;;;4904965;28;59763;-69
2023/10/13 10:35:22;;;;;;;0.70;0.70;;;;;;;;;;4921922;28;58581;-70
2023/10/13 10:37:48;;;;;;;0.60;0.60;;;;;;;;;;4922931;28;59337;-70
2023/10/13 10:40:58;;;;;;;0.80;0.70;;;;;;;;;;4920866;28;58824;-70
2023/10/13 10:43:08;;;;;;;0.90;0.90;;;;;;;;;;4915469;28;58483;-69
2023/10/13 10:45:33;;;;;;;1.70;0.90;;;;;;;;;;4922497;28;59373;-70
2023/10/13 10:47:59;;;;;;;0.60;0.60;;;;;;;;;;4920652;28;59088;-70
2023/10/13 10:50:32;;;;;;;1.23;0.90;;;;;;;;;;4921646;28;58571;-70
2023/10/13 10:52:57;;;;;;;0.98;0.77;;;;;;;;;;4926067;28;59543;-68
2023/10/13 10:55:27;;;;;;;1.07;0.97;;;;;;;;;;4926135;28;59242;-69
2023/10/13 10:58:01;;;;;;;1.20;1.05;;;;;;;;;;4925972;28;59269;-68
2023/10/13 11:00:37;;;;;;;1.58;1.13;;;;;;;;;;4925957;28;58614;-68
2023/10/13 11:03:04;;;;;;;0.50;0.50;;;;;;;;;;4925380;28;58610;-68
2023/10/13 11:05:32;;;;;;;0.90;0.90;;;;;;;;;;4923158;28;58509;-68
2023/10/13 11:07:57;;;;;;;0.70;0.70;;;;;;;;;;4925124;28;58872;-68
2023/10/13 11:10:31;;;;;;;3.60;0.82;;;;;;;;;;4924531;28;58175;-69
2023/10/13 11:13:11;;;;;;;0.80;0.80;;;;;;;;;;4924486;28;61199;-68
2023/10/13 11:15:45;;;;;;;0.75;0.75;;;;;;;;;;4924866;28;59446;-67
2023/10/13 11:18:20;;;;;;;0.80;0.68;;;;;;;;;;4926373;28;58684;-68
2023/10/13 11:20:49;;;;;;;1.48;1.38;;;;;;;;;;4923410;28;58638;-68
2023/10/13 11:23:15;;;;;;;;;;;;;;;;;;4925578;28;58212;-68
2023/10/13 11:25:43;;;;;;;0.73;0.70;;;;;;;;;;4924705;28;58569;-67
2023/10/13 11:28:08;;;;;;;;;;;;;;;;;;4922885;28;59061;-67
2023/10/13 11:33:05;;;;;;;1.10;1.00;;;;;;;;;;4926396;28;58414;-67
2023/10/13 11:35:48;;;;;;;0.88;0.88;;;;;;;;;;4923954;28;58823;-68
2023/10/13 11:38:14;;;;;;;1.40;1.00;;;;;;;;;;4925542;28;58247;-68
2023/10/13 11:43:24;;;;;;;1.30;1.05;;;;;;;;;;4925371;28;58366;-68
2023/10/13 11:48:38;;;;;;;1.20;0.98;;;;;;;;;;4888790;28;58301;-68
2023/10/13 11:51:07;;;;;;;1.02;0.93;;;;;;;;;;4924006;28;58498;-68
2023/10/13 11:53:32;;;;;;;1.30;1.20;;;;;;;;;;4925052;28;58709;-68
2023/10/13 11:55:58;;;;;;;0.80;0.73;;;;;;;;;;4923327;28;58820;-68
2023/10/13 11:58:23;;;;;;;1.80;1.20;;;;;;;;;;4924954;28;58426;-68
2023/10/13 12:00:53;;;;;;;0.90;0.90;;;;;;;;;;4924241;28;58750;-68
2023/10/13 12:08:52;;;;;;;1.25;1.15;;;;;;;;;;4923449;28;58488;-69
2023/10/13 12:11:38;;;;;;;1.52;1.42;;;;;;;;;;4922636;28;58541;-70
2023/10/13 12:14:11;;;;;;;1.20;1.10;;;;;;;;;;4923393;28;60030;-68
2023/10/13 12:16:36;;;;;;;1.15;1.08;;;;;;;;;;4907257;28;60163;-68
2023/10/13 12:19:02;;;;;;;0.90;0.90;;;;;;;;;;4905486;28;58384;-68
2023/10/13 12:21:27;;;;;;;1.40;1.20;;;;;;;;;;4921768;28;59292;-67
2023/10/13 12:23:55;;;;;;;1.40;0.83;;;;;;;;;;4922907;28;59012;-67
2023/10/13 12:26:20;;;;;;;;;;;;;;;;;;4924710;28;58372;-67
2023/10/13 12:28:51;;;;;;;1.30;1.00;;;;;;;;;;4922508;28;59142;-67
2023/10/13 12:31:17;;;;;;;1.45;1.35;;;;;;;;;;4923880;28;58394;-67
2023/10/13 12:33:42;;;;;;;2.10;1.23;;;;;;;;;;4923781;28;59422;-68
2023/10/13 12:50:12;;;;;;;0.80;0.80;;;;;;;;;;4919933;28;58423;-67
2023/10/13 12:52:16;;;;;;;4.63;1.45;;;;;;;;;;4914794;28;58454;-67
2023/10/13 12:54:58;;;;;;;1.55;1.45;;;;;;;;;;4921261;28;59396;-68
2023/10/13 12:57:27;;;;;;;1.65;1.25;;;;;;;;;;4919678;28;62434;-68
2023/10/13 12:59:53;;;;;;;1.42;1.02;;;;;;;;;;4903768;28;58474;-68
2023/10/13 13:02:20;;;;;;;1.63;1.35;;;;;;;;;;4901545;28;60245;-68
2023/10/13 13:04:47;;;;;;;1.45;0.88;;;;;;;;;;4908136;28;59341;-67
2023/10/13 13:07:13;;;;;;;1.85;1.33;;;;;;;;;;4901997;28;58537;-68
2023/10/13 13:09:39;;;;;;;1.80;1.15;;;;;;;;;;4921097;28;60707;-68
2023/10/13 13:12:06;;;;;;;1.75;1.20;;;;;;;;;;4921627;28;58302;-68
2023/10/13 13:14:34;;;;;;;1.25;1.10;;;;;;;;;;4919238;28;60154;-67
2023/10/13 13:17:04;;;;;;;1.75;1.38;;;;;;;;;;4923993;28;60061;-68
2023/10/13 13:19:36;;;;;;;1.40;1.30;;;;;;;;;;4922417;28;58393;-67
2023/10/13 13:22:02;;;;;;;1.33;1.15;;;;;;;;;;4921414;28;59693;-69
2023/10/13 13:24:29;;;;;;;1.20;1.10;;;;;;;;;;4920435;28;58610;-70
2023/10/13 13:26:55;;;;;;;1.77;1.10;;;;;;;;;;4919060;28;58388;-69
2023/10/13 13:29:20;;;;;;;1.77;1.67;;;;;;;;;;4920197;28;60289;-71
2023/10/13 13:31:46;;;;;;;1.80;1.20;;;;;;;;;;4916912;28;58405;-69
2023/10/13 13:34:12;;;;;;;1.45;1.23;;;;;;;;;;4917189;28;59542;-70
2023/10/13 13:36:37;;;;;;;1.20;1.02;;;;;;;;;;4916168;28;58512;-69
2023/10/13 13:39:04;;;;;;;1.15;1.05;;;;;;;;;;4915464;28;58484;-70
2023/10/13 13:41:32;;;;;;;1.40;1.30;;;;;;;;;;4912324;28;58615;-70
2023/10/13 13:44:01;;;;;;;1.45;1.35;;;;;;;;;;4919224;28;58587;-70
2023/10/13 13:46:32;;;;;;;1.50;1.40;;;;;;;;;;4922363;28;58523;-69
2023/10/13 13:48:59;;;;;;;1.90;1.80;;;;;;;;;;4919634;28;58592;-70
2023/10/13 13:51:27;;;;;;;1.45;1.35;;;;;;;;;;4919673;28;59232;-69
2023/10/13 13:53:53;;;;;;;1.70;1.48;;;;;;;;;;4920070;28;59790;-71
2023/10/13 13:56:18;;;;;;;1.45;1.35;;;;;;;;;;4918316;28;58517;-67
2023/10/13 13:58:44;;;;;;;1.45;1.30;;;;;;;;;;4920789;28;58483;-67
2023/10/13 14:01:14;;;;;;;1.80;1.38;;;;;;;;;;4919051;28;58517;-70
2023/10/13 14:03:45;;;;;;;1.60;1.50;;;;;;;;;;4915736;28;59008;-70
2023/10/13 14:06:16;;;;;;;1.98;1.80;;;;;;;;;;4911157;28;58475;-70
2023/10/13 14:08:42;;;;;;;4.35;1.80;;;;;;;;;;4919985;28;58986;-70
2023/10/13 14:13:50;;;;;;;;;;;;;;;;;;4919988;28;58644;-71
2023/10/13 14:16:16;;;;;;;1.73;1.63;;;;;;;;;;4920403;28;58684;-71
2023/10/13 14:18:51;;;;;;;3.33;2.08;;;;;;;;;;4921808;28;58454;-70
2023/10/13 14:21:16;;;;;;;2.08;1.48;;;;;;;;;;4920003;28;59292;-70
2023/10/13 14:23:49;;;;;;;1.30;1.20;;;;;;;;;;4920790;28;59226;-67
2023/10/13 14:26:20;;;;;;;1.30;1.20;;;;;;;;;;4926022;28;58544;-67
2023/10/13 14:29:00;;;;;;;1.50;1.40;;;;;;;;;;4925444;28;60019;-67
2023/10/13 14:31:25;;;;;;;2.40;1.45;;;;;;;;;;4924072;28;59173;-67
2023/10/13 14:33:50;;;;;;;1.87;1.63;;;;;;;;;;4926932;28;58487;-68
2023/10/13 14:36:19;;;;;;;1.70;1.60;;;;;;;;;;4930437;28;60323;-67
2023/10/13 14:38:47;;;;;;;2.83;1.67;;;;;;;;;;4905785;28;58502;-67
2023/10/13 14:41:12;;;;;;;1.52;1.40;;;;;;;;;;4926119;28;59487;-68
2023/10/13 14:43:37;;;;;;;1.17;1.15;;;;;;;;;;4924303;28;58594;-67
2023/10/13 14:46:07;;;;;;;1.23;1.13;;;;;;;;;;4925246;28;58504;-68
2023/10/13 14:48:32;;;;;;;1.77;1.67;;;;;;;;;;4924907;28;58632;-68
2023/10/13 14:50:57;;;;;;;1.63;1.30;;;;;;;;;;4923902;28;58644;-67
2023/10/13 14:53:23;;;;;;;1.60;1.50;;;;;;;;;;4925289;28;58409;-67
2023/10/13 14:55:48;;;;;;;1.43;1.33;;;;;;;;;;4929749;28;60155;-67
2023/10/13 14:58:16;;;;;;;1.80;1.67;;;;;;;;;;4925914;28;58816;-67
2023/10/13 15:00:45;;;;;;;1.55;1.23;;;;;;;;;;4925048;28;58697;-67
2023/10/13 15:03:10;;;;;;;1.52;1.42;;;;;;;;;;4924528;28;58441;-68
2023/10/13 15:05:37;;;;;;;1.67;1.45;;;;;;;;;;4923974;28;58533;-67
2023/10/13 15:08:03;;;;;;;2.33;2.00;;;;;;;;;;4925306;28;60321;-68
2023/10/13 15:10:28;;;;;;;1.77;1.65;;;;;;;;;;4924721;28;59484;-68
2023/10/13 15:12:54;;;;;;;2.50;1.85;;;;;;;;;;4916078;28;58268;-68
2023/10/13 15:15:19;;;;;;;2.60;2.10;;;;;;;;;;4924695;28;58761;-67
2023/10/13 15:17:48;;;;;;;1.65;1.48;;;;;;;;;;4924913;28;58626;-67
2023/10/13 15:20:15;;;;;;;2.05;1.45;;;;;;;;;;4925453;28;58587;-68
2023/10/13 15:22:44;;;;;;;1.67;1.58;;;;;;;;;;4923974;28;58460;-68
2023/10/13 15:25:49;;;;;;;1.85;1.75;;;;;;;;;;4924511;28;58393;-67
2023/10/13 15:28:05;;;;;;;2.20;2.00;;;;;;;;;;4922955;28;59162;-67
2023/10/13 15:31:22;;;;;;;1.65;1.50;;;;;;;;;;4921545;28;58690;-67
2023/10/13 15:33:21;;;;;;;1.50;1.40;;;;;;;;;;4924344;28;58531;-71
2023/10/13 15:35:47;;;;;;;2.20;1.50;;;;;;;;;;4911633;28;59270;-70
2023/10/13 15:38:12;;;;;;;1.60;1.50;;;;;;;;;;4923717;28;58915;-70
2023/10/13 15:40:42;;;;;;;1.47;1.37;;;;;;;;;;4907178;28;58400;-70
2023/10/13 15:43:07;;;;;;;1.85;1.70;;;;;;;;;;4924244;28;58586;-71
2023/10/13 15:45:38;;;;;;;1.57;1.30;;;;;;;;;;4923668;28;58564;-70
2023/10/13 15:48:04;;;;;;;1.50;1.40;;;;;;;;;;4906417;28;59297;-71
2023/10/13 15:50:34;;;;;;;1.80;1.25;;;;;;;;;;4921778;28;59415;-70
2023/10/13 15:53:01;;;;;;;2.15;1.83;;;;;;;;;;4924511;28;58422;-70
2023/10/13 15:55:27;;;;;;;1.95;1.60;;;;;;;;;;4923669;28;59656;-70
2023/10/13 15:57:55;;;;;;;2.13;1.77;;;;;;;;;;4925024;28;58692;-70
2023/10/13 16:00:23;;;;;;;;;;;;;;;;;;4923354;28;58488;-71
2023/10/13 16:03:10;;;;;;;3.40;1.70;;;;;;;;;;4923713;28;58624;-70
2023/10/13 16:05:36;;;;;;;2.30;2.10;;;;;;;;;;4922890;28;58440;-70
2023/10/13 16:08:03;;;;;;;1.50;1.40;;;;;;;;;;4923251;28;58591;-70
2023/10/13 16:10:28;;;;;;;2.42;2.22;;;;;;;;;;4903675;28;59872;-71
2023/10/13 16:12:53;;;;;;;1.67;1.58;;;;;;;;;;4924480;28;58197;-71
2023/10/13 16:15:21;;;;;;;1.80;1.70;;;;;;;;;;4923363;28;60149;-70
2023/10/13 16:17:46;;;;;;;1.80;1.70;;;;;;;;;;4922527;28;58423;-70
2023/10/13 16:20:17;;;;;;;2.20;1.73;;;;;;;;;;4923056;28;58550;-70
2023/10/13 16:22:43;;;;;;;2.22;2.00;;;;;;;;;;4922521;28;60626;-70
2023/10/13 16:25:11;;;;;;;1.55;1.45;;;;;;;;;;4921079;28;60247;-71
2023/10/13 16:27:39;;;;;;;1.60;1.50;;;;;;;;;;4922266;28;58449;-70
2023/10/13 16:30:09;;;;;;;2.03;1.67;;;;;;;;;;4920185;28;59180;-70
2023/10/13 16:32:34;;;;;;;1.90;1.77;;;;;;;;;;4916240;28;58537;-69
2023/10/13 16:35:00;;;;;;;1.40;1.30;;;;;;;;;;4920688;28;58570;-70
2023/10/13 16:37:26;;;;;;;2.75;2.10;;;;;;;;;;4918903;28;59776;-70
2023/10/13 16:40:08;;;;;;;1.30;1.20;;;;;;;;;;4922876;28;58333;-70
2023/10/13 16:42:33;;;;;;;2.50;2.17;;;;;;;;;;4923530;28;59424;-71
2023/10/13 16:47:46;;;;;;;2.03;1.83;;;;;;;;;;4923202;28;58353;-70
2023/10/13 16:50:11;;;;;;;1.63;1.52;;;;;;;;;;4923917;28;59209;-71
2023/10/13 16:52:37;;;;;;;1.80;1.70;;;;;;;;;;4923969;28;58340;-70
2023/10/13 16:55:03;;;;;;;1.50;1.40;;;;;;;;;;4924970;28;60369;-70
2023/10/13 16:57:28;;;;;;;1.90;1.67;;;;;;;;;;4922657;28;58761;-71
2023/10/13 16:59:54;;;;;;;2.17;1.97;;;;;;;;;;4923860;28;59102;-70
2023/10/13 17:02:19;;;;;;;1.45;1.35;;;;;;;;;;4923173;28;59745;-70
2023/10/13 17:04:44;;;;;;;3.00;1.70;;;;;;;;;;4923247;28;58462;-70
2023/10/13 17:07:09;;;;;;;1.42;1.25;;;;;;;;;;4922966;28;58371;-71
2023/10/13 17:09:34;;;;;;;1.42;1.33;;;;;;;;;;4919652;28;60307;-70
2023/10/13 17:12:00;;;;;;;1.67;1.58;;;;;;;;;;4917343;28;58526;-70
2023/10/13 17:14:26;;;;;;;1.40;1.30;;;;;;;;;;4919645;28;59921;-69
2023/10/13 17:16:51;;;;;;;1.60;1.50;;;;;;;;;;4920171;28;58451;-70
2023/10/13 17:19:16;;;;;;;1.65;1.55;;;;;;;;;;4920965;28;58335;-70
2023/10/13 17:21:44;;;;;;;2.92;1.67;;;;;;;;;;4921007;28;58819;-70
2023/10/13 17:24:11;;;;;;;1.50;1.40;;;;;;;;;;4923499;28;59155;-72
2023/10/13 17:26:36;;;;;;;1.92;1.83;;;;;;;;;;4921202;28;58395;-70
2023/10/13 17:29:02;;;;;;;3.67;1.58;;;;;;;;;;4922131;28;60023;-70
2023/10/13 17:31:27;;;;;;;1.65;1.55;;;;;;;;;;4921414;28;58942;-71
2023/10/13 17:33:52;;;;;;;1.87;1.77;;;;;;;;;;4923833;28;59355;-71
2023/10/13 17:36:18;;;;;;;3.47;1.87;;;;;;;;;;4895619;28;60029;-71
2023/10/13 17:38:44;;;;;;;2.03;1.70;;;;;;;;;;4908265;28;58262;-71
2023/10/13 17:41:13;;;;;;;3.22;2.22;;;;;;;;;;4911297;28;59331;-70
2023/10/13 17:43:38;;;;;;;2.70;1.65;;;;;;;;;;4916542;28;59365;-71
2023/10/13 17:46:05;;;;;;;3.03;2.27;;;;;;;;;;4922175;28;58514;-71
2023/10/13 17:48:34;;;;;;;4.63;2.35;;;;;;;;;;4922207;28;59492;-71
2023/10/13 17:51:04;;;;;;;1.98;1.70;;;;;;;;;;4919691;28;59935;-73
2023/10/13 17:53:34;;;;;;;2.10;1.70;;;;;;;;;;4922230;28;58386;-77
2023/10/13 17:56:01;;;;;;;1.60;1.50;;;;;;;;;;4921656;28;58922;-72
2023/10/13 17:58:26;;;;;;;3.35;2.28;;;;;;;;;;4920415;28;58435;-71
2023/10/13 18:00:52;;;;;;;3.03;2.33;;;;;;;;;;4908935;28;59992;-73
2023/10/13 18:03:17;;;;;;;3.45;2.03;;;;;;;;;;4920496;28;58773;-70
2023/10/13 18:05:42;;;;;;;3.08;2.13;;;;;;;;;;4921028;28;58198;-72